sensor_id;sensor_type;location;lat;lon;timestamp;pressure;altitude;pressure_sealevel;temperature;humidity
71772;BME280;59606;52.138;5.424;2022-12-29T00:01:54;100062.22;;;10.04;100.00
71772;BME280;59606;52.138;5.424;2022-12-29T00:04:22;100065.53;;;10.06;100.00
71772;BME280;59606;52.138;5.424;2022-12-29T00:06:48;100064.50;;;10.08;100.00
71772;BME280;59606;52.138;5.424;2022-12-29T00:09:16;100047.84;;;10.11;100.00
71772;BME280;59606;52.138;5.424;2022-12-29T00:11:43;100044.09;;;10.15;100.00
71772;BME280;59606;52.138;5.424;2022-12-29T00:14:10;100034.53;;;10.15;100.00
71772;BME280;59606;52.138;5.424;2022-12-29T00:16:55;100043.81;;;10.20;100.00
71772;BME280;59606;52.138;5.424;2022-12-29T00:19:23;100036.72;;;10.22;100.00
71772;BME280;59606;52.138;5.424;2022-12-29T00:22:10;100033.41;;;10.20;100.00
71772;BME280;59606;52.138;5.424;2022-12-29T00:25:04;100034.88;;;10.24;100.00
71772;BME280;59606;52.138;5.424;2022-12-29T00:27:49;100020.91;;;10.25;99.92
71772;BME280;59606;52.138;5.424;2022-12-29T00:30:35;100027.59;;;10.29;99.28
71772;BME280;59606;52.138;5.424;2022-12-29T00:33:22;100018.75;;;10.31;99.03
71772;BME280;59606;52.138;5.424;2022-12-29T00:36:27;100020.53;;;10.31;99.17
71772;BME280;59606;52.138;5.424;2022-12-29T00:38:57;100017.94;;;10.31;99.12
71772;BME280;59606;52.138;5.424;2022-12-29T00:41:44;100008.28;;;10.33;98.88
71772;BME280;59606;52.138;5.424;2022-12-29T00:44:29;100004.72;;;10.34;98.52
71772;BME280;59606;52.138;5.424;2022-12-29T00:46:56;100012.41;;;10.35;98.67
71772;BME280;59606;52.138;5.424;2022-12-29T00:49:22;100009.09;;;10.33;98.71
71772;BME280;59606;52.138;5.424;2022-12-29T00:52:06;99989.09;;;10.34;98.42
71772;BME280;59606;52.138;5.424;2022-12-29T00:54:36;99987.19;;;10.36;98.13
71772;BME280;59606;52.138;5.424;2022-12-29T00:57:04;99975.88;;;10.37;98.11
71772;BME280;59606;52.138;5.424;2022-12-29T00:59:31;99979.41;;;10.36;97.87
71772;BME280;59606;52.138;5.424;2022-12-29T01:01:57;99968.16;;;10.35;97.09
71772;BME280;59606;52.138;5.424;2022-12-29T01:04:25;99977.53;;;10.38;97.43
71772;BME280;59606;52.138;5.424;2022-12-29T01:06:52;99963.78;;;10.36;97.87
71772;BME280;59606;52.138;5.424;2022-12-29T01:09:19;99964.72;;;10.35;97.91
71772;BME280;59606;52.138;5.424;2022-12-29T01:12:05;99970.13;;;10.32;98.39
71772;BME280;59606;52.138;5.424;2022-12-29T01:14:32;99959.09;;;10.28;98.44
71772;BME280;59606;52.138;5.424;2022-12-29T01:16:59;99954.84;;;10.27;98.56
71772;BME280;59606;52.138;5.424;2022-12-29T01:19:25;99953.06;;;10.28;98.82
71772;BME280;59606;52.138;5.424;2022-12-29T01:21:52;99954.06;;;10.25;99.51
71772;BME280;59606;52.138;5.424;2022-12-29T01:24:20;99955.22;;;10.21;99.68
71772;BME280;59606;52.138;5.424;2022-12-29T01:26:47;99956.34;;;10.17;100.00
71772;BME280;59606;52.138;5.424;2022-12-29T01:29:15;99947.19;;;10.11;100.00
71772;BME280;59606;52.138;5.424;2022-12-29T01:31:42;99943.00;;;10.09;100.00
71772;BME280;59606;52.138;5.424;2022-12-29T01:34:09;99945.94;;;10.04;100.00
71772;BME280;59606;52.138;5.424;2022-12-29T01:36:35;99931.47;;;10.00;100.00
71772;BME280;59606;52.138;5.424;2022-12-29T01:39:02;99940.31;;;9.98;100.00
71772;BME280;59606;52.138;5.424;2022-12-29T01:41:28;99959.53;;;9.95;100.00
71772;BME280;59606;52.138;5.424;2022-12-29T01:43:57;99957.06;;;9.94;100.00
71772;BME280;59606;52.138;5.424;2022-12-29T01:49:18;99946.13;;;9.88;100.00
71772;BME280;59606;52.138;5.424;2022-12-29T01:51:48;99942.81;;;9.86;100.00
71772;BME280;59606;52.138;5.424;2022-12-29T01:54:22;99954.03;;;9.87;100.00
71772;BME280;59606;52.138;5.424;2022-12-29T01:56:51;99948.72;;;9.88;100.00
71772;BME280;59606;52.138;5.424;2022-12-29T01:59:22;99974.72;;;9.88;100.00
71772;BME280;59606;52.138;5.424;2022-12-29T02:01:50;99959.13;;;9.88;100.00
71772;BME280;59606;52.138;5.424;2022-12-29T02:04:17;99966.94;;;9.88;100.00
71772;BME280;59606;52.138;5.424;2022-12-29T02:07:08;99976.41;;;9.89;100.00
71772;BME280;59606;52.138;5.424;2022-12-29T02:09:37;99964.03;;;9.93;100.00
71772;BME280;59606;52.138;5.424;2022-12-29T02:12:03;99947.47;;;9.94;100.00
71772;BME280;59606;52.138;5.424;2022-12-29T02:14:30;99961.31;;;9.95;100.00
71772;BME280;59606;52.138;5.424;2022-12-29T02:28:29;99964.75;;;9.95;100.00
71772;BME280;59606;52.138;5.424;2022-12-29T02:36:31;99962.78;;;9.99;100.00
71772;BME280;59606;52.138;5.424;2022-12-29T02:39:17;99962.06;;;9.97;100.00
71772;BME280;59606;52.138;5.424;2022-12-29T02:47:46;99950.19;;;9.93;100.00
71772;BME280;59606;52.138;5.424;2022-12-29T02:50:57;99957.06;;;9.94;100.00
71772;BME280;59606;52.138;5.424;2022-12-29T02:53:21;99954.47;;;9.94;100.00
71772;BME280;59606;52.138;5.424;2022-12-29T02:56:09;99951.75;;;9.95;100.00
71772;BME280;59606;52.138;5.424;2022-12-29T02:58:36;99948.31;;;9.95;100.00
71772;BME280;59606;52.138;5.424;2022-12-29T03:01:23;99950.91;;;9.95;100.00
71772;BME280;59606;52.138;5.424;2022-12-29T03:09:28;99956.22;;;9.93;100.00
71772;BME280;59606;52.138;5.424;2022-12-29T03:12:42;99956.22;;;9.93;100.00
71772;BME280;59606;52.138;5.424;2022-12-29T03:15:50;99955.50;;;9.91;100.00
71772;BME280;59606;52.138;5.424;2022-12-29T03:21:34;99948.91;;;9.85;100.00
71772;BME280;59606;52.138;5.424;2022-12-29T03:24:24;99962.78;;;9.86;100.00
71772;BME280;59606;52.138;5.424;2022-12-29T03:26:55;99951.31;;;9.88;100.00
71772;BME280;59606;52.138;5.424;2022-12-29T03:29:23;99950.59;;;9.86;100.00
71772;BME280;59606;52.138;5.424;2022-12-29T03:31:51;99939.44;;;9.84;100.00
71772;BME280;59606;52.138;5.424;2022-12-29T03:34:20;99938.00;;;9.80;100.00
71772;BME280;59606;52.138;5.424;2022-12-29T03:36:52;99925.50;;;9.73;100.00
71772;BME280;59606;52.138;5.424;2022-12-29T03:39:22;99943.06;;;9.69;100.00
71772;BME280;59606;52.138;5.424;2022-12-29T03:41:52;99954.31;;;9.70;100.00
71772;BME280;59606;52.138;5.424;2022-12-29T03:44:31;99945.88;;;9.66;100.00
71772;BME280;59606;52.138;5.424;2022-12-29T03:46:58;99945.88;;;9.66;100.00
71772;BME280;59606;52.138;5.424;2022-12-29T03:49:24;99941.59;;;9.65;100.00
71772;BME280;59606;52.138;5.424;2022-12-29T03:51:51;99938.34;;;9.61;100.00
71772;BME280;59606;52.138;5.424;2022-12-29T03:54:17;99943.75;;;9.58;100.00
71772;BME280;59606;52.138;5.424;2022-12-29T03:56:44;99943.88;;;9.57;100.00
71772;BME280;59606;52.138;5.424;2022-12-29T03:59:10;99944.91;;;9.54;100.00
71772;BME280;59606;52.138;5.424;2022-12-29T04:01:36;99943.44;;;9.50;100.00
71772;BME280;59606;52.138;5.424;2022-12-29T04:04:03;99939.06;;;9.51;100.00
71772;BME280;59606;52.138;5.424;2022-12-29T04:06:30;99939.25;;;9.48;100.00
71772;BME280;59606;52.138;5.424;2022-12-29T04:08:56;99947.25;;;9.44;100.00
71772;BME280;59606;52.138;5.424;2022-12-29T04:11:23;99931.84;;;9.41;99.95
71772;BME280;59606;52.138;5.424;2022-12-29T04:13:56;99933.72;;;9.39;100.00
71772;BME280;59606;52.138;5.424;2022-12-29T04:16:22;99940.59;;;9.40;100.00
71772;BME280;59606;52.138;5.424;2022-12-29T04:18:49;99937.88;;;9.42;100.00
71772;BME280;59606;52.138;5.424;2022-12-29T04:21:15;99946.44;;;9.44;100.00
71772;BME280;59606;52.138;5.424;2022-12-29T04:23:43;99961.81;;;9.47;99.57
71772;BME280;59606;52.138;5.424;2022-12-29T04:26:10;99974.63;;;9.50;98.82
71772;BME280;59606;52.138;5.424;2022-12-29T04:28:36;99969.25;;;9.53;98.87
71772;BME280;59606;52.138;5.424;2022-12-29T04:31:04;99957.25;;;9.51;98.65
71772;BME280;59606;52.138;5.424;2022-12-29T04:33:31;99960.41;;;9.56;97.34
71772;BME280;59606;52.138;5.424;2022-12-29T04:35:57;99963.00;;;9.56;96.65
71772;BME280;59606;52.138;5.424;2022-12-29T04:38:24;99968.94;;;9.58;96.81
71772;BME280;59606;52.138;5.424;2022-12-29T04:40:51;99981.09;;;9.57;96.32
71772;BME280;59606;52.138;5.424;2022-12-29T04:43:18;99976.84;;;9.56;96.10
71772;BME280;59606;52.138;5.424;2022-12-29T04:45:50;99979.97;;;9.61;93.71
71772;BME280;59606;52.138;5.424;2022-12-29T04:48:17;99980.78;;;9.62;93.61
71772;BME280;59606;52.138;5.424;2022-12-29T04:50:46;99990.09;;;9.66;92.99
71772;BME280;59606;52.138;5.424;2022-12-29T04:53:13;99984.66;;;9.69;92.86
71772;BME280;59606;52.138;5.424;2022-12-29T04:55:39;99996.00;;;9.68;92.90
71772;BME280;59606;52.138;5.424;2022-12-29T04:58:06;99992.78;;;9.64;92.59
71772;BME280;59606;52.138;5.424;2022-12-29T05:00:32;99987.69;;;9.63;92.83
71772;BME280;59606;52.138;5.424;2022-12-29T05:02:59;99972.34;;;9.58;93.28
71772;BME280;59606;52.138;5.424;2022-12-29T05:05:26;99993.91;;;9.60;92.72
71772;BME280;59606;52.138;5.424;2022-12-29T05:07:53;99998.28;;;9.60;91.67
71772;BME280;59606;52.138;5.424;2022-12-29T05:10:19;100003.28;;;9.63;92.46
71772;BME280;59606;52.138;5.424;2022-12-29T05:12:45;100002.53;;;9.61;91.93
71772;BME280;59606;52.138;5.424;2022-12-29T05:15:12;100000.88;;;9.60;91.53
71772;BME280;59606;52.138;5.424;2022-12-29T05:17:39;100000.88;;;9.60;91.57
71772;BME280;59606;52.138;5.424;2022-12-29T05:20:06;100002.84;;;9.56;91.48
71772;BME280;59606;52.138;5.424;2022-12-29T05:22:33;100004.63;;;9.56;91.59
71772;BME280;59606;52.138;5.424;2022-12-29T05:25:00;100002.03;;;9.56;90.92
71772;BME280;59606;52.138;5.424;2022-12-29T05:27:26;100005.44;;;9.56;90.38
71772;BME280;59606;52.138;5.424;2022-12-29T05:29:53;100007.09;;;9.57;90.71
71772;BME280;59606;52.138;5.424;2022-12-29T05:32:19;100005.44;;;9.56;90.70
71772;BME280;59606;52.138;5.424;2022-12-29T05:34:45;100013.34;;;9.55;90.34
71772;BME280;59606;52.138;5.424;2022-12-29T05:37:12;100019.47;;;9.54;90.17
71772;BME280;59606;52.138;5.424;2022-12-29T05:39:38;100003.88;;;9.54;91.21
71772;BME280;59606;52.138;5.424;2022-12-29T05:42:05;100013.53;;;9.52;90.20
71772;BME280;59606;52.138;5.424;2022-12-29T05:44:31;100007.41;;;9.53;89.89
71772;BME280;59606;52.138;5.424;2022-12-29T05:46:58;100000.44;;;9.53;90.13
71772;BME280;59606;52.138;5.424;2022-12-29T05:49:24;100003.22;;;9.50;90.46
71772;BME280;59606;52.138;5.424;2022-12-29T05:51:51;100005.09;;;9.48;90.37
71772;BME280;59606;52.138;5.424;2022-12-29T05:54:17;100011.13;;;9.49;90.62
71772;BME280;59606;52.138;5.424;2022-12-29T05:56:43;100010.28;;;9.48;91.24
71772;BME280;59606;52.138;5.424;2022-12-29T05:59:10;100023.41;;;9.47;90.98
71772;BME280;59606;52.138;5.424;2022-12-29T06:01:36;100032.03;;;9.47;90.51
71772;BME280;59606;52.138;5.424;2022-12-29T06:04:03;100033.03;;;9.44;90.36
71772;BME280;59606;52.138;5.424;2022-12-29T06:06:29;100025.16;;;9.46;90.19
71772;BME280;59606;52.138;5.424;2022-12-29T06:08:56;100031.19;;;9.47;89.50
71772;BME280;59606;52.138;5.424;2022-12-29T06:11:23;100026.72;;;9.49;90.19
71772;BME280;59606;52.138;5.424;2022-12-29T06:13:49;100042.63;;;9.44;90.80
71772;BME280;59606;52.138;5.424;2022-12-29T06:16:16;100050.72;;;9.39;91.15
71772;BME280;59606;52.138;5.424;2022-12-29T06:18:42;100053.59;;;9.35;91.01
71772;BME280;59606;52.138;5.424;2022-12-29T06:21:09;100045.13;;;9.31;91.84
71772;BME280;59606;52.138;5.424;2022-12-29T06:23:35;100043.56;;;9.29;91.83
71772;BME280;59606;52.138;5.424;2022-12-29T06:26:03;100046.38;;;9.26;92.54
71772;BME280;59606;52.138;5.424;2022-12-29T06:28:29;100064.00;;;9.20;91.73
71772;BME280;59606;52.138;5.424;2022-12-29T06:30:56;100047.59;;;9.20;91.70
71772;BME280;59606;52.138;5.424;2022-12-29T06:33:23;100056.50;;;9.16;92.55
71772;BME280;59606;52.138;5.424;2022-12-29T06:35:50;100055.00;;;9.12;92.81
71772;BME280;59606;52.138;5.424;2022-12-29T06:38:16;100068.22;;;9.09;92.74
71772;BME280;59606;52.138;5.424;2022-12-29T06:40:43;100061.44;;;9.06;93.51
71772;BME280;59606;52.138;5.424;2022-12-29T06:43:11;100072.06;;;9.02;93.69
71772;BME280;59606;52.138;5.424;2022-12-29T06:45:39;100064.47;;;8.98;94.10
71772;BME280;59606;52.138;5.424;2022-12-29T06:48:06;100082.66;;;8.98;93.95
71772;BME280;59606;52.138;5.424;2022-12-29T06:50:33;100074.13;;;8.96;93.96
71772;BME280;59606;52.138;5.424;2022-12-29T06:52:59;100065.59;;;8.94;93.62
71772;BME280;59606;52.138;5.424;2022-12-29T06:55:26;100069.00;;;8.95;93.53
71772;BME280;59606;52.138;5.424;2022-12-29T06:57:57;100080.28;;;8.95;92.77
71772;BME280;59606;52.138;5.424;2022-12-29T07:00:25;100065.34;;;8.99;91.31
71772;BME280;59606;52.138;5.424;2022-12-29T07:02:51;100065.88;;;9.04;91.52
71772;BME280;59606;52.138;5.424;2022-12-29T07:05:20;100055.47;;;9.04;90.98
71772;BME280;59606;52.138;5.424;2022-12-29T07:07:47;100074.41;;;9.06;89.05
71772;BME280;59606;52.138;5.424;2022-12-29T07:10:13;100086.19;;;9.12;88.49
71772;BME280;59606;52.138;5.424;2022-12-29T07:12:40;100088.06;;;9.10;89.07
71772;BME280;59606;52.138;5.424;2022-12-29T07:15:07;100073.31;;;8.96;90.75
71772;BME280;59606;52.138;5.424;2022-12-29T07:17:34;100085.44;;;8.81;91.41
71772;BME280;59606;52.138;5.424;2022-12-29T07:20:00;100083.31;;;8.73;92.04
71772;BME280;59606;52.138;5.424;2022-12-29T07:22:27;100084.66;;;8.65;92.55
71772;BME280;59606;52.138;5.424;2022-12-29T07:24:53;100088.56;;;8.58;93.53
71772;BME280;59606;52.138;5.424;2022-12-29T07:27:20;100102.00;;;8.50;93.16
71772;BME280;59606;52.138;5.424;2022-12-29T07:29:46;100106.59;;;8.45;94.05
71772;BME280;59606;52.138;5.424;2022-12-29T07:32:12;100112.91;;;8.41;94.80
71772;BME280;59606;52.138;5.424;2022-12-29T07:34:39;100102.81;;;8.35;94.92
71772;BME280;59606;52.138;5.424;2022-12-29T07:37:06;100112.66;;;8.30;94.86
71772;BME280;59606;52.138;5.424;2022-12-29T07:39:32;100113.66;;;8.27;95.45
71772;BME280;59606;52.138;5.424;2022-12-29T07:41:58;100117.06;;;8.27;96.22
71772;BME280;59606;52.138;5.424;2022-12-29T07:44:30;100112.72;;;8.28;96.02
71772;BME280;59606;52.138;5.424;2022-12-29T07:46:56;100114.31;;;8.31;96.32
71772;BME280;59606;52.138;5.424;2022-12-29T07:49:24;100115.06;;;8.33;96.27
71772;BME280;59606;52.138;5.424;2022-12-29T07:51:51;100097.63;;;8.35;96.54
71772;BME280;59606;52.138;5.424;2022-12-29T07:54:17;100113.00;;;8.39;96.56
71772;BME280;59606;52.138;5.424;2022-12-29T07:56:49;100111.13;;;8.41;96.12
71772;BME280;59606;52.138;5.424;2022-12-29T07:59:16;100110.22;;;8.42;96.47
71772;BME280;59606;52.138;5.424;2022-12-29T08:01:42;100117.91;;;8.44;96.02
71772;BME280;59606;52.138;5.424;2022-12-29T08:04:09;100103.94;;;8.46;95.72
71772;BME280;59606;52.138;5.424;2022-12-29T08:06:36;100115.06;;;8.48;95.72
71772;BME280;59606;52.138;5.424;2022-12-29T08:09:04;100113.97;;;8.53;94.67
71772;BME280;59606;52.138;5.424;2022-12-29T08:11:41;100112.97;;;8.55;95.03
71772;BME280;59606;52.138;5.424;2022-12-29T08:14:09;100098.03;;;8.59;94.44
71772;BME280;59606;52.138;5.424;2022-12-29T08:16:36;100093.50;;;8.62;93.68
71772;BME280;59606;52.138;5.424;2022-12-29T08:19:02;100098.50;;;8.65;93.71
71772;BME280;59606;52.138;5.424;2022-12-29T08:21:30;100092.22;;;8.69;93.40
71772;BME280;59606;52.138;5.424;2022-12-29T08:23:56;100083.19;;;8.75;91.95
71772;BME280;59606;52.138;5.424;2022-12-29T08:26:23;100087.47;;;8.76;91.71
71772;BME280;59606;52.138;5.424;2022-12-29T08:28:52;100089.91;;;8.79;91.33
71772;BME280;59606;52.138;5.424;2022-12-29T08:31:18;100098.41;;;8.81;91.64
71772;BME280;59606;52.138;5.424;2022-12-29T08:33:45;100093.97;;;8.83;90.50
71772;BME280;59606;52.138;5.424;2022-12-29T08:36:12;100092.69;;;8.90;89.44
71772;BME280;59606;52.138;5.424;2022-12-29T08:38:38;100104.66;;;8.93;89.03
71772;BME280;59606;52.138;5.424;2022-12-29T08:41:04;100098.34;;;8.97;88.26
71772;BME280;59606;52.138;5.424;2022-12-29T08:43:31;100098.91;;;9.02;88.11
71772;BME280;59606;52.138;5.424;2022-12-29T08:45:58;100109.31;;;9.02;88.56
71772;BME280;59606;52.138;5.424;2022-12-29T08:48:25;100106.59;;;9.04;87.77
71772;BME280;59606;52.138;5.424;2022-12-29T08:50:52;100117.84;;;9.04;88.38
71772;BME280;59606;52.138;5.424;2022-12-29T08:53:19;100117.75;;;9.06;88.02
71772;BME280;59606;52.138;5.424;2022-12-29T08:55:46;100120.34;;;9.06;88.65
71772;BME280;59606;52.138;5.424;2022-12-29T08:58:13;100110.88;;;9.05;88.62
71772;BME280;59606;52.138;5.424;2022-12-29T09:00:41;100115.22;;;9.04;88.72
71772;BME280;59606;52.138;5.424;2022-12-29T09:03:08;100117.84;;;9.04;89.40
71772;BME280;59606;52.138;5.424;2022-12-29T09:05:35;100126.38;;;9.06;89.45
71772;BME280;59606;52.138;5.424;2022-12-29T09:08:02;100124.69;;;9.05;89.25
71772;BME280;59606;52.138;5.424;2022-12-29T09:10:29;100125.56;;;9.06;89.48
71772;BME280;59606;52.138;5.424;2022-12-29T09:12:55;100133.16;;;9.09;89.60
71772;BME280;59606;52.138;5.424;2022-12-29T09:15:22;100124.31;;;9.11;90.14
71772;BME280;59606;52.138;5.424;2022-12-29T09:17:48;100139.00;;;9.12;89.39
71772;BME280;59606;52.138;5.424;2022-12-29T09:20:17;100122.47;;;9.13;89.46
71772;BME280;59606;52.138;5.424;2022-12-29T09:22:45;100145.03;;;9.13;90.19
71772;BME280;59606;52.138;5.424;2022-12-29T09:25:12;100130.28;;;9.13;90.30
71772;BME280;59606;52.138;5.424;2022-12-29T09:27:39;100147.72;;;9.11;90.46
71772;BME280;59606;52.138;5.424;2022-12-29T09:30:08;100147.06;;;9.08;91.15
71772;BME280;59606;52.138;5.424;2022-12-29T09:32:35;100149.75;;;9.06;91.44
71772;BME280;59606;52.138;5.424;2022-12-29T09:35:10;100159.50;;;9.03;92.76
71772;BME280;59606;52.138;5.424;2022-12-29T09:37:36;100169.50;;;8.94;92.99
71772;BME280;59606;52.138;5.424;2022-12-29T09:40:04;100189.63;;;8.91;94.26
71772;BME280;59606;52.138;5.424;2022-12-29T09:45:20;100190.09;;;8.83;95.20
71772;BME280;59606;52.138;5.424;2022-12-29T09:47:52;100197.38;;;8.77;95.62
71772;BME280;59606;52.138;5.424;2022-12-29T09:50:29;100188.28;;;8.69;97.18
71772;BME280;59606;52.138;5.424;2022-12-29T09:53:04;100204.88;;;8.67;97.50
71772;BME280;59606;52.138;5.424;2022-12-29T09:55:59;100193.81;;;8.63;98.45
71772;BME280;59606;52.138;5.424;2022-12-29T09:58:39;100202.63;;;8.61;98.96
71772;BME280;59606;52.138;5.424;2022-12-29T10:04:02;100204.38;;;8.60;99.35
71772;BME280;59606;52.138;5.424;2022-12-29T10:06:57;100224.38;;;8.58;99.79
71772;BME280;59606;52.138;5.424;2022-12-29T10:10:06;100213.28;;;8.56;100.00
71772;BME280;59606;52.138;5.424;2022-12-29T10:15:53;100229.69;;;8.57;100.00
71772;BME280;59606;52.138;5.424;2022-12-29T10:21:22;100236.47;;;8.59;100.00
71772;BME280;59606;52.138;5.424;2022-12-29T10:23:53;100234.78;;;8.58;100.00
71772;BME280;59606;52.138;5.424;2022-12-29T10:26:23;100246.03;;;8.59;100.00
71772;BME280;59606;52.138;5.424;2022-12-29T10:29:04;100255.47;;;8.60;100.00
71772;BME280;59606;52.138;5.424;2022-12-29T10:31:38;100255.31;;;8.63;100.00
71772;BME280;59606;52.138;5.424;2022-12-29T10:36:43;100258.84;;;8.62;100.00
71772;BME280;59606;52.138;5.424;2022-12-29T10:39:25;100269.22;;;8.62;100.00
71772;BME280;59606;52.138;5.424;2022-12-29T10:42:04;100269.97;;;8.64;100.00
71772;BME280;59606;52.138;5.424;2022-12-29T10:44:34;100281.84;;;8.68;100.00
71772;BME280;59606;52.138;5.424;2022-12-29T10:47:05;100273.31;;;8.66;100.00
71772;BME280;59606;52.138;5.424;2022-12-29T10:49:37;100281.09;;;8.66;100.00
71772;BME280;59606;52.138;5.424;2022-12-29T10:52:06;100306.13;;;8.67;100.00
71772;BME280;59606;52.138;5.424;2022-12-29T10:54:46;100298.19;;;8.70;100.00
71772;BME280;59606;52.138;5.424;2022-12-29T10:59:54;100307.41;;;8.76;100.00
71772;BME280;59606;52.138;5.424;2022-12-29T11:08:19;100318.34;;;8.81;100.00
71772;BME280;59606;52.138;5.424;2022-12-29T11:10:57;100334.78;;;8.81;100.00
71772;BME280;59606;52.138;5.424;2022-12-29T11:13:27;100329.56;;;8.81;100.00
71772;BME280;59606;52.138;5.424;2022-12-29T11:16:02;100342.50;;;8.83;100.00
71772;BME280;59606;52.138;5.424;2022-12-29T11:18:39;100333.00;;;8.82;100.00
71772;BME280;59606;52.138;5.424;2022-12-29T11:21:23;100345.94;;;8.83;100.00
71772;BME280;59606;52.138;5.424;2022-12-29T11:24:05;100357.81;;;8.87;100.00
71772;BME280;59606;52.138;5.424;2022-12-29T11:26:34;100346.41;;;8.90;100.00
71772;BME280;59606;52.138;5.424;2022-12-29T11:31:42;100352.50;;;9.05;100.00
71772;BME280;59606;52.138;5.424;2022-12-29T11:34:18;100365.66;;;9.17;99.81
71772;BME280;59606;52.138;5.424;2022-12-29T11:36:45;100361.88;;;9.23;100.00
71772;BME280;59606;52.138;5.424;2022-12-29T11:39:29;100361.94;;;9.21;99.27
71772;BME280;59606;52.138;5.424;2022-12-29T11:41:57;100361.13;;;9.21;98.05
71772;BME280;59606;52.138;5.424;2022-12-29T11:44:25;100371.69;;;9.18;97.86
71772;BME280;59606;52.138;5.424;2022-12-29T11:46:53;100372.78;;;9.14;97.55
71772;BME280;59606;52.138;5.424;2022-12-29T11:49:22;100368.59;;;9.11;97.36
71772;BME280;59606;52.138;5.424;2022-12-29T11:51:51;100369.34;;;9.13;97.18
71772;BME280;59606;52.138;5.424;2022-12-29T11:54:22;100373.44;;;9.17;97.50
71772;BME280;59606;52.138;5.424;2022-12-29T11:56:50;100391.47;;;9.20;97.23
71772;BME280;59606;52.138;5.424;2022-12-29T12:01:57;100384.19;;;9.11;96.28
71772;BME280;59606;52.138;5.424;2022-12-29T12:04:34;100388.38;;;9.14;96.78
71772;BME280;59606;52.138;5.424;2022-12-29T12:07:22;100393.69;;;9.12;96.06
71772;BME280;59606;52.138;5.424;2022-12-29T12:09:53;100394.00;;;9.06;95.89
71772;BME280;59606;52.138;5.424;2022-12-29T12:12:37;100396.00;;;9.01;96.22
71772;BME280;59606;52.138;5.424;2022-12-29T12:15:08;100402.13;;;9.00;96.82
71772;BME280;59606;52.138;5.424;2022-12-29T12:20:52;100399.03;;;8.78;98.28
71772;BME280;59606;52.138;5.424;2022-12-29T12:26:35;100407.16;;;8.71;99.52
71772;BME280;59606;52.138;5.424;2022-12-29T12:29:10;100423.50;;;8.73;99.58
71772;BME280;59606;52.138;5.424;2022-12-29T12:34:37;100416.22;;;8.80;100.00
71772;BME280;59606;52.138;5.424;2022-12-29T12:40:02;100423.84;;;8.83;100.00
71772;BME280;59606;52.138;5.424;2022-12-29T12:42:47;100425.44;;;8.86;100.00
71772;BME280;59606;52.138;5.424;2022-12-29T12:56:47;100423.09;;;9.13;99.48
71772;BME280;59606;52.138;5.424;2022-12-29T12:59:24;100426.25;;;9.18;97.78
71772;BME280;59606;52.138;5.424;2022-12-29T13:02:19;100418.28;;;9.21;97.95
71772;BME280;59606;52.138;5.424;2022-12-29T13:12:15;100440.41;;;9.28;96.29
71772;BME280;59606;52.138;5.424;2022-12-29T13:14:19;100437.91;;;9.27;96.23
71772;BME280;59606;52.138;5.424;2022-12-29T13:24:56;100452.69;;;9.26;95.44
71772;BME280;59606;52.138;5.424;2022-12-29T13:30:10;100458.03;;;9.23;94.25
71772;BME280;59606;52.138;5.424;2022-12-29T13:32:45;100457.22;;;9.23;94.30
71772;BME280;59606;52.138;5.424;2022-12-29T13:35:27;100453.09;;;9.18;94.27
71772;BME280;59606;52.138;5.424;2022-12-29T13:38:03;100456.53;;;9.19;94.82
71772;BME280;59606;52.138;5.424;2022-12-29T13:40:36;100457.44;;;9.18;94.18
71772;BME280;59606;52.138;5.424;2022-12-29T13:43:05;100461.75;;;9.19;93.98
71772;BME280;59606;52.138;5.424;2022-12-29T13:45:34;100466.06;;;9.18;93.78
71772;BME280;59606;52.138;5.424;2022-12-29T13:48:06;100464.16;;;9.22;93.11
71772;BME280;59606;52.138;5.424;2022-12-29T13:50:38;100467.59;;;9.23;92.86
71772;BME280;59606;52.138;5.424;2022-12-29T13:53:22;100466.75;;;9.22;92.96
71772;BME280;59606;52.138;5.424;2022-12-29T13:58:46;100471.22;;;9.20;93.13
71772;BME280;59606;52.138;5.424;2022-12-29T14:03:48;100460.88;;;9.18;93.49
71772;BME280;59606;52.138;5.424;2022-12-29T14:08:46;100455.00;;;9.15;93.84
71772;BME280;59606;52.138;5.424;2022-12-29T14:11:16;100470.72;;;9.13;94.14
71772;BME280;59606;52.138;5.424;2022-12-29T14:13:46;100477.72;;;9.11;93.93
71772;BME280;59606;52.138;5.424;2022-12-29T14:16:42;100488.38;;;9.07;94.22
71772;BME280;59606;52.138;5.424;2022-12-29T14:21:39;100498.59;;;8.94;95.18
71772;BME280;59606;52.138;5.424;2022-12-29T14:34:48;100496.69;;;8.64;94.29
71772;BME280;59606;52.138;5.424;2022-12-29T14:37:27;100505.72;;;8.57;94.32
71772;BME280;59606;52.138;5.424;2022-12-29T14:42:38;100499.28;;;8.48;96.06
71772;BME280;59606;52.138;5.424;2022-12-29T14:45:26;100505.00;;;8.38;96.83
71772;BME280;59606;52.138;5.424;2022-12-29T14:47:53;100507.13;;;8.30;97.55
71772;BME280;59606;52.138;5.424;2022-12-29T14:50:22;100511.63;;;8.26;97.71
71772;BME280;59606;52.138;5.424;2022-12-29T14:52:52;100504.91;;;8.22;98.95
71772;BME280;59606;52.138;5.424;2022-12-29T14:55:54;100498.03;;;8.21;98.07
71772;BME280;59606;52.138;5.424;2022-12-29T15:01:43;100512.75;;;8.20;99.15
71772;BME280;59606;52.138;5.424;2022-12-29T15:04:31;100511.00;;;8.21;99.42
71772;BME280;59606;52.138;5.424;2022-12-29T15:06:59;100515.34;;;8.20;99.87
71772;BME280;59606;52.138;5.424;2022-12-29T15:09:34;100503.31;;;8.19;99.78
71772;BME280;59606;52.138;5.424;2022-12-29T15:14:51;100521.47;;;8.19;100.00
71772;BME280;59606;52.138;5.424;2022-12-29T15:17:25;100506.66;;;8.21;100.00
71772;BME280;59606;52.138;5.424;2022-12-29T15:19:57;100518.72;;;8.22;100.00
71772;BME280;59606;52.138;5.424;2022-12-29T15:22:24;100507.41;;;8.23;100.00
71772;BME280;59606;52.138;5.424;2022-12-29T15:24:53;100516.88;;;8.24;100.00
71772;BME280;59606;52.138;5.424;2022-12-29T15:27:25;100516.81;;;8.26;100.00
71772;BME280;59606;52.138;5.424;2022-12-29T15:30:01;100511.63;;;8.26;100.00
71772;BME280;59606;52.138;5.424;2022-12-29T15:32:38;100514.97;;;8.28;100.00